sensor_id;sensor_type;location;lat;lon;timestamp;temperature;humidity
17571;DHT22;8903;52.220;20.978;2023-08-06T00:01:10;18.90;99.90
17571;DHT22;8903;52.220;20.978;2023-08-06T00:03:37;18.90;99.90
17571;DHT22;8903;52.220;20.978;2023-08-06T00:06:05;18.90;99.90
17571;DHT22;8903;52.220;20.978;2023-08-06T00:08:32;18.90;99.90
17571;DHT22;8903;52.220;20.978;2023-08-06T00:11:00;18.90;99.90
17571;DHT22;8903;52.220;20.978;2023-08-06T00:13:27;18.90;99.90
17571;DHT22;8903;52.220;20.978;2023-08-06T00:15:54;18.90;99.90
17571;DHT22;8903;52.220;20.978;2023-08-06T00:18:21;18.90;99.90
17571;DHT22;8903;52.220;20.978;2023-08-06T00:20:48;18.80;99.90
17571;DHT22;8903;52.220;20.978;2023-08-06T00:23:15;18.80;99.90
17571;DHT22;8903;52.220;20.978;2023-08-06T00:25:42;18.80;99.90
17571;DHT22;8903;52.220;20.978;2023-08-06T00:28:10;18.80;99.90
17571;DHT22;8903;52.220;20.978;2023-08-06T00:30:37;18.80;99.90
17571;DHT22;8903;52.220;20.978;2023-08-06T00:33:04;18.80;99.90
17571;DHT22;8903;52.220;20.978;2023-08-06T00:35:31;18.70;99.90
17571;DHT22;8903;52.220;20.978;2023-08-06T00:37:58;18.60;99.90
17571;DHT22;8903;52.220;20.978;2023-08-06T00:40:25;18.60;99.90
17571;DHT22;8903;52.220;20.978;2023-08-06T00:42:54;18.60;99.90
17571;DHT22;8903;52.220;20.978;2023-08-06T00:45:23;18.60;99.90
17571;DHT22;8903;52.220;20.978;2023-08-06T00:47:51;18.60;99.90
17571;DHT22;8903;52.220;20.978;2023-08-06T00:50:18;18.50;99.90
17571;DHT22;8903;52.220;20.978;2023-08-06T00:52:46;18.50;99.90
17571;DHT22;8903;52.220;20.978;2023-08-06T00:55:14;18.50;99.90
17571;DHT22;8903;52.220;20.978;2023-08-06T00:57:41;18.50;99.90
17571;DHT22;8903;52.220;20.978;2023-08-06T01:00:09;18.50;99.90
17571;DHT22;8903;52.220;20.978;2023-08-06T01:02:38;18.50;99.90
17571;DHT22;8903;52.220;20.978;2023-08-06T01:05:05;18.50;99.90
17571;DHT22;8903;52.220;20.978;2023-08-06T01:07:40;18.40;99.90
17571;DHT22;8903;52.220;20.978;2023-08-06T01:10:30;18.40;99.90
17571;DHT22;8903;52.220;20.978;2023-08-06T01:13:06;18.40;99.90
17571;DHT22;8903;52.220;20.978;2023-08-06T01:15:38;18.50;99.90
17571;DHT22;8903;52.220;20.978;2023-08-06T01:18:08;18.50;99.90
17571;DHT22;8903;52.220;20.978;2023-08-06T01:20:37;18.50;99.90
17571;DHT22;8903;52.220;20.978;2023-08-06T01:23:04;18.40;99.90
17571;DHT22;8903;52.220;20.978;2023-08-06T01:25:46;18.40;99.90
17571;DHT22;8903;52.220;20.978;2023-08-06T01:28:21;18.40;99.90
17571;DHT22;8903;52.220;20.978;2023-08-06T01:30:50;18.40;99.90
17571;DHT22;8903;52.220;20.978;2023-08-06T01:33:21;18.50;99.90
17571;DHT22;8903;52.220;20.978;2023-08-06T01:35:51;18.40;99.90
17571;DHT22;8903;52.220;20.978;2023-08-06T01:38:21;18.40;99.90
17571;DHT22;8903;52.220;20.978;2023-08-06T01:40:48;18.40;99.90
17571;DHT22;8903;52.220;20.978;2023-08-06T01:43:15;18.40;99.90
17571;DHT22;8903;52.220;20.978;2023-08-06T01:45:42;18.40;99.90
17571;DHT22;8903;52.220;20.978;2023-08-06T01:48:09;18.50;99.90
17571;DHT22;8903;52.220;20.978;2023-08-06T01:50:36;18.50;99.90
17571;DHT22;8903;52.220;20.978;2023-08-06T01:53:04;18.50;99.90
17571;DHT22;8903;52.220;20.978;2023-08-06T01:55:31;18.40;99.90
17571;DHT22;8903;52.220;20.978;2023-08-06T01:57:58;18.50;99.90
17571;DHT22;8903;52.220;20.978;2023-08-06T02:00:25;18.40;99.90
17571;DHT22;8903;52.220;20.978;2023-08-06T02:02:53;18.40;99.90
17571;DHT22;8903;52.220;20.978;2023-08-06T02:05:20;18.40;99.90
17571;DHT22;8903;52.220;20.978;2023-08-06T02:07:47;18.50;99.90
17571;DHT22;8903;52.220;20.978;2023-08-06T02:10:15;18.40;99.90
17571;DHT22;8903;52.220;20.978;2023-08-06T02:12:44;18.50;99.90
17571;DHT22;8903;52.220;20.978;2023-08-06T02:15:11;18.50;99.90
17571;DHT22;8903;52.220;20.978;2023-08-06T02:17:37;18.50;99.90
17571;DHT22;8903;52.220;20.978;2023-08-06T02:20:06;18.50;99.90
17571;DHT22;8903;52.220;20.978;2023-08-06T02:22:34;18.50;99.90
17571;DHT22;8903;52.220;20.978;2023-08-06T02:25:01;18.50;99.90
17571;DHT22;8903;52.220;20.978;2023-08-06T02:27:29;18.60;99.90
17571;DHT22;8903;52.220;20.978;2023-08-06T02:29:56;18.60;99.90
17571;DHT22;8903;52.220;20.978;2023-08-06T02:32:23;18.60;99.90
17571;DHT22;8903;52.220;20.978;2023-08-06T02:34:50;18.60;99.90
17571;DHT22;8903;52.220;20.978;2023-08-06T02:37:17;18.60;99.90
17571;DHT22;8903;52.220;20.978;2023-08-06T02:39:45;18.60;99.90
17571;DHT22;8903;52.220;20.978;2023-08-06T02:42:13;18.70;99.90
17571;DHT22;8903;52.220;20.978;2023-08-06T02:44:41;18.70;99.90
17571;DHT22;8903;52.220;20.978;2023-08-06T02:47:08;18.70;99.90
17571;DHT22;8903;52.220;20.978;2023-08-06T02:49:35;18.70;99.90
17571;DHT22;8903;52.220;20.978;2023-08-06T02:52:03;18.70;99.90
17571;DHT22;8903;52.220;20.978;2023-08-06T02:54:30;18.70;99.90
17571;DHT22;8903;52.220;20.978;2023-08-06T02:56:57;18.70;99.90
17571;DHT22;8903;52.220;20.978;2023-08-06T02:59:29;18.80;99.90
17571;DHT22;8903;52.220;20.978;2023-08-06T03:02:06;18.80;99.90
17571;DHT22;8903;52.220;20.978;2023-08-06T03:04:56;18.80;99.90
17571;DHT22;8903;52.220;20.978;2023-08-06T03:07:27;18.80;99.90
17571;DHT22;8903;52.220;20.978;2023-08-06T03:10:00;18.80;99.90
17571;DHT22;8903;52.220;20.978;2023-08-06T03:12:28;18.80;99.90
17571;DHT22;8903;52.220;20.978;2023-08-06T03:14:58;18.90;99.90
17571;DHT22;8903;52.220;20.978;2023-08-06T03:17:26;18.90;99.90
17571;DHT22;8903;52.220;20.978;2023-08-06T03:19:54;18.90;99.90
17571;DHT22;8903;52.220;20.978;2023-08-06T03:22:22;18.90;99.90
17571;DHT22;8903;52.220;20.978;2023-08-06T03:24:50;18.90;99.90
17571;DHT22;8903;52.220;20.978;2023-08-06T03:27:18;18.90;99.90
17571;DHT22;8903;52.220;20.978;2023-08-06T03:29:48;18.90;99.90
17571;DHT22;8903;52.220;20.978;2023-08-06T03:32:17;18.90;99.90
17571;DHT22;8903;52.220;20.978;2023-08-06T03:34:47;18.90;99.90
17571;DHT22;8903;52.220;20.978;2023-08-06T03:37:15;18.90;99.90
17571;DHT22;8903;52.220;20.978;2023-08-06T03:39:42;19.00;99.90
17571;DHT22;8903;52.220;20.978;2023-08-06T03:42:09;19.00;99.90
17571;DHT22;8903;52.220;20.978;2023-08-06T03:44:36;19.00;99.90
17571;DHT22;8903;52.220;20.978;2023-08-06T03:47:03;19.00;99.90
17571;DHT22;8903;52.220;20.978;2023-08-06T03:49:31;19.00;99.90
17571;DHT22;8903;52.220;20.978;2023-08-06T03:51:59;19.00;99.90
17571;DHT22;8903;52.220;20.978;2023-08-06T03:54:26;19.10;99.90
17571;DHT22;8903;52.220;20.978;2023-08-06T03:56:53;19.10;99.90
17571;DHT22;8903;52.220;20.978;2023-08-06T03:59:20;19.00;99.90
17571;DHT22;8903;52.220;20.978;2023-08-06T04:01:48;19.10;99.90
17571;DHT22;8903;52.220;20.978;2023-08-06T04:04:15;19.10;99.90
17571;DHT22;8903;52.220;20.978;2023-08-06T04:06:42;19.10;99.90
17571;DHT22;8903;52.220;20.978;2023-08-06T04:09:10;19.20;99.90
17571;DHT22;8903;52.220;20.978;2023-08-06T04:11:39;19.20;99.90
17571;DHT22;8903;52.220;20.978;2023-08-06T04:14:05;19.20;99.90
17571;DHT22;8903;52.220;20.978;2023-08-06T04:16:32;19.20;99.90
17571;DHT22;8903;52.220;20.978;2023-08-06T04:19:00;19.20;99.90
17571;DHT22;8903;52.220;20.978;2023-08-06T04:21:27;19.20;99.90
17571;DHT22;8903;52.220;20.978;2023-08-06T04:23:54;19.20;99.90
17571;DHT22;8903;52.220;20.978;2023-08-06T04:26:22;19.30;99.90
17571;DHT22;8903;52.220;20.978;2023-08-06T04:28:49;19.30;99.90
17571;DHT22;8903;52.220;20.978;2023-08-06T04:31:16;19.30;99.90
17571;DHT22;8903;52.220;20.978;2023-08-06T04:33:44;19.40;99.90
17571;DHT22;8903;52.220;20.978;2023-08-06T04:36:13;19.40;99.90
17571;DHT22;8903;52.220;20.978;2023-08-06T04:38:40;19.50;99.90
17571;DHT22;8903;52.220;20.978;2023-08-06T04:41:10;19.50;99.90
17571;DHT22;8903;52.220;20.978;2023-08-06T04:43:39;19.50;99.90
17571;DHT22;8903;52.220;20.978;2023-08-06T04:46:06;19.60;99.90
17571;DHT22;8903;52.220;20.978;2023-08-06T04:48:33;19.60;99.90
17571;DHT22;8903;52.220;20.978;2023-08-06T04:51:00;19.60;99.90
17571;DHT22;8903;52.220;20.978;2023-08-06T04:53:26;19.60;99.90
17571;DHT22;8903;52.220;20.978;2023-08-06T04:55:53;19.70;99.90
17571;DHT22;8903;52.220;20.978;2023-08-06T04:58:20;19.80;99.90
17571;DHT22;8903;52.220;20.978;2023-08-06T05:00:49;19.80;99.90
17571;DHT22;8903;52.220;20.978;2023-08-06T05:03:16;19.80;99.90
17571;DHT22;8903;52.220;20.978;2023-08-06T05:05:43;19.90;99.90
17571;DHT22;8903;52.220;20.978;2023-08-06T05:08:14;19.90;99.90
17571;DHT22;8903;52.220;20.978;2023-08-06T05:10:42;20.00;99.90
17571;DHT22;8903;52.220;20.978;2023-08-06T05:13:10;20.10;99.90
17571;DHT22;8903;52.220;20.978;2023-08-06T05:15:36;20.10;99.90
17571;DHT22;8903;52.220;20.978;2023-08-06T05:18:06;20.20;99.90
17571;DHT22;8903;52.220;20.978;2023-08-06T05:20:36;20.30;99.90
17571;DHT22;8903;52.220;20.978;2023-08-06T05:23:03;20.30;99.90
17571;DHT22;8903;52.220;20.978;2023-08-06T05:25:30;20.40;99.90
17571;DHT22;8903;52.220;20.978;2023-08-06T05:27:57;20.50;99.90
17571;DHT22;8903;52.220;20.978;2023-08-06T05:30:24;20.60;99.90
17571;DHT22;8903;52.220;20.978;2023-08-06T05:32:51;20.70;99.90
17571;DHT22;8903;52.220;20.978;2023-08-06T05:35:19;20.70;99.90
17571;DHT22;8903;52.220;20.978;2023-08-06T05:37:46;20.80;99.90
17571;DHT22;8903;52.220;20.978;2023-08-06T05:40:13;20.90;99.90
17571;DHT22;8903;52.220;20.978;2023-08-06T05:42:40;21.00;99.90
17571;DHT22;8903;52.220;20.978;2023-08-06T05:45:08;21.00;99.90
17571;DHT22;8903;52.220;20.978;2023-08-06T05:47:36;21.10;99.90
17571;DHT22;8903;52.220;20.978;2023-08-06T05:50:04;21.20;99.90
17571;DHT22;8903;52.220;20.978;2023-08-06T05:52:32;21.30;99.90
17571;DHT22;8903;52.220;20.978;2023-08-06T05:54:59;21.40;99.90
17571;DHT22;8903;52.220;20.978;2023-08-06T05:57:26;21.50;99.90
17571;DHT22;8903;52.220;20.978;2023-08-06T05:59:53;21.50;99.90
17571;DHT22;8903;52.220;20.978;2023-08-06T06:02:20;21.70;99.90
17571;DHT22;8903;52.220;20.978;2023-08-06T06:04:47;21.80;99.90
17571;DHT22;8903;52.220;20.978;2023-08-06T06:07:14;21.80;99.90
17571;DHT22;8903;52.220;20.978;2023-08-06T06:09:42;21.90;99.90
17571;DHT22;8903;52.220;20.978;2023-08-06T06:12:09;22.00;99.90
17571;DHT22;8903;52.220;20.978;2023-08-06T06:14:36;22.00;99.90
17571;DHT22;8903;52.220;20.978;2023-08-06T06:17:04;22.10;99.90
17571;DHT22;8903;52.220;20.978;2023-08-06T06:19:31;22.20;99.90
17571;DHT22;8903;52.220;20.978;2023-08-06T06:21:58;22.20;99.90
17571;DHT22;8903;52.220;20.978;2023-08-06T06:24:25;22.30;99.90
17571;DHT22;8903;52.220;20.978;2023-08-06T06:26:53;22.30;99.90
17571;DHT22;8903;52.220;20.978;2023-08-06T06:29:20;22.40;99.90
17571;DHT22;8903;52.220;20.978;2023-08-06T06:31:47;22.50;99.90
17571;DHT22;8903;52.220;20.978;2023-08-06T06:34:14;22.50;99.90
17571;DHT22;8903;52.220;20.978;2023-08-06T06:36:41;22.60;99.90
17571;DHT22;8903;52.220;20.978;2023-08-06T06:39:08;22.70;99.90
17571;DHT22;8903;52.220;20.978;2023-08-06T06:41:35;22.80;99.90
17571;DHT22;8903;52.220;20.978;2023-08-06T06:44:11;22.90;99.90
17571;DHT22;8903;52.220;20.978;2023-08-06T06:46:38;22.90;99.90
17571;DHT22;8903;52.220;20.978;2023-08-06T06:49:05;22.90;99.90
17571;DHT22;8903;52.220;20.978;2023-08-06T06:51:32;23.00;99.90
17571;DHT22;8903;52.220;20.978;2023-08-06T06:53:59;23.10;99.90
17571;DHT22;8903;52.220;20.978;2023-08-06T06:56:26;23.20;99.90
17571;DHT22;8903;52.220;20.978;2023-08-06T06:58:53;23.30;99.90
17571;DHT22;8903;52.220;20.978;2023-08-06T07:01:21;23.40;99.90
17571;DHT22;8903;52.220;20.978;2023-08-06T07:03:48;23.50;99.90
17571;DHT22;8903;52.220;20.978;2023-08-06T07:06:15;23.60;99.90
17571;DHT22;8903;52.220;20.978;2023-08-06T07:08:44;23.70;99.90
17571;DHT22;8903;52.220;20.978;2023-08-06T07:11:11;23.70;99.90
17571;DHT22;8903;52.220;20.978;2023-08-06T07:13:38;23.80;99.90
17571;DHT22;8903;52.220;20.978;2023-08-06T07:16:05;23.80;99.90
17571;DHT22;8903;52.220;20.978;2023-08-06T07:18:33;23.90;99.90
17571;DHT22;8903;52.220;20.978;2023-08-06T07:21:00;24.00;99.90
17571;DHT22;8903;52.220;20.978;2023-08-06T07:23:27;24.00;99.90
17571;DHT22;8903;52.220;20.978;2023-08-06T07:25:54;24.00;99.90
17571;DHT22;8903;52.220;20.978;2023-08-06T07:28:21;24.00;99.90
17571;DHT22;8903;52.220;20.978;2023-08-06T07:30:48;24.10;99.90
17571;DHT22;8903;52.220;20.978;2023-08-06T07:33:15;24.30;99.90
17571;DHT22;8903;52.220;20.978;2023-08-06T07:35:43;24.40;99.90
17571;DHT22;8903;52.220;20.978;2023-08-06T07:38:10;24.50;99.90
17571;DHT22;8903;52.220;20.978;2023-08-06T07:40:38;24.70;99.90
17571;DHT22;8903;52.220;20.978;2023-08-06T07:43:05;24.80;99.90
17571;DHT22;8903;52.220;20.978;2023-08-06T07:45:33;25.00;99.90
17571;DHT22;8903;52.220;20.978;2023-08-06T07:48:01;25.00;99.90
17571;DHT22;8903;52.220;20.978;2023-08-06T07:50:28;25.00;99.90
17571;DHT22;8903;52.220;20.978;2023-08-06T07:52:57;25.10;99.90
17571;DHT22;8903;52.220;20.978;2023-08-06T07:55:24;25.10;99.90
17571;DHT22;8903;52.220;20.978;2023-08-06T07:57:53;25.20;99.90
17571;DHT22;8903;52.220;20.978;2023-08-06T08:00:20;25.20;99.90
17571;DHT22;8903;52.220;20.978;2023-08-06T08:02:46;25.20;99.90
17571;DHT22;8903;52.220;20.978;2023-08-06T08:05:13;25.20;99.90
17571;DHT22;8903;52.220;20.978;2023-08-06T08:07:41;25.30;99.90
17571;DHT22;8903;52.220;20.978;2023-08-06T08:10:09;25.50;99.90
17571;DHT22;8903;52.220;20.978;2023-08-06T08:12:36;25.50;99.90
17571;DHT22;8903;52.220;20.978;2023-08-06T08:15:04;25.60;99.90
17571;DHT22;8903;52.220;20.978;2023-08-06T08:17:31;25.70;99.90
17571;DHT22;8903;52.220;20.978;2023-08-06T08:20:00;25.90;99.90
17571;DHT22;8903;52.220;20.978;2023-08-06T08:22:27;25.90;99.90
17571;DHT22;8903;52.220;20.978;2023-08-06T08:24:54;26.00;99.90
17571;DHT22;8903;52.220;20.978;2023-08-06T08:27:22;26.10;99.90
17571;DHT22;8903;52.220;20.978;2023-08-06T08:29:49;26.20;99.90
17571;DHT22;8903;52.220;20.978;2023-08-06T08:32:16;26.30;99.90
17571;DHT22;8903;52.220;20.978;2023-08-06T08:34:43;26.40;99.90
17571;DHT22;8903;52.220;20.978;2023-08-06T08:37:10;26.50;99.90
17571;DHT22;8903;52.220;20.978;2023-08-06T08:39:37;26.60;99.90
17571;DHT22;8903;52.220;20.978;2023-08-06T08:42:04;26.70;99.90
17571;DHT22;8903;52.220;20.978;2023-08-06T08:44:35;26.80;99.90
17571;DHT22;8903;52.220;20.978;2023-08-06T08:47:05;26.90;99.90
17571;DHT22;8903;52.220;20.978;2023-08-06T08:49:32;27.00;99.90
17571;DHT22;8903;52.220;20.978;2023-08-06T08:52:02;27.00;99.90
17571;DHT22;8903;52.220;20.978;2023-08-06T08:54:32;27.00;99.90
17571;DHT22;8903;52.220;20.978;2023-08-06T08:56:59;27.10;99.90
17571;DHT22;8903;52.220;20.978;2023-08-06T08:59:27;27.20;99.90
17571;DHT22;8903;52.220;20.978;2023-08-06T09:01:57;27.10;99.90
17571;DHT22;8903;52.220;20.978;2023-08-06T09:04:27;27.20;99.90
17571;DHT22;8903;52.220;20.978;2023-08-06T09:06:58;27.20;99.90
17571;DHT22;8903;52.220;20.978;2023-08-06T09:09:28;27.20;99.90
17571;DHT22;8903;52.220;20.978;2023-08-06T09:12:00;27.30;99.90
17571;DHT22;8903;52.220;20.978;2023-08-06T09:14:27;27.30;99.90
17571;DHT22;8903;52.220;20.978;2023-08-06T09:16:56;27.50;99.90
17571;DHT22;8903;52.220;20.978;2023-08-06T09:19:24;27.60;99.90
17571;DHT22;8903;52.220;20.978;2023-08-06T09:21:51;27.70;99.90
17571;DHT22;8903;52.220;20.978;2023-08-06T09:24:18;27.80;99.90
17571;DHT22;8903;52.220;20.978;2023-08-06T09:26:46;27.80;99.90
17571;DHT22;8903;52.220;20.978;2023-08-06T09:29:13;27.80;99.90
17571;DHT22;8903;52.220;20.978;2023-08-06T09:31:41;27.90;99.90
17571;DHT22;8903;52.220;20.978;2023-08-06T09:34:15;28.00;99.90
17571;DHT22;8903;52.220;20.978;2023-08-06T09:36:43;28.00;99.90
17571;DHT22;8903;52.220;20.978;2023-08-06T09:39:13;28.10;99.90
17571;DHT22;8903;52.220;20.978;2023-08-06T09:41:41;28.20;99.90
17571;DHT22;8903;52.220;20.978;2023-08-06T09:44:15;28.30;99.90
17571;DHT22;8903;52.220;20.978;2023-08-06T09:46:46;28.30;99.90
17571;DHT22;8903;52.220;20.978;2023-08-06T09:49:15;28.30;99.90
17571;DHT22;8903;52.220;20.978;2023-08-06T09:51:42;28.40;99.90
17571;DHT22;8903;52.220;20.978;2023-08-06T09:54:12;28.60;99.90
17571;DHT22;8903;52.220;20.978;2023-08-06T09:56:40;28.60;99.90
17571;DHT22;8903;52.220;20.978;2023-08-06T09:59:07;28.70;99.90
17571;DHT22;8903;52.220;20.978;2023-08-06T10:01:35;28.90;99.90
17571;DHT22;8903;52.220;20.978;2023-08-06T10:04:03;28.90;99.90
17571;DHT22;8903;52.220;20.978;2023-08-06T10:06:33;29.00;99.90
17571;DHT22;8903;52.220;20.978;2023-08-06T10:09:01;29.10;99.90
17571;DHT22;8903;52.220;20.978;2023-08-06T10:11:29;29.10;99.90
17571;DHT22;8903;52.220;20.978;2023-08-06T10:14:02;29.10;99.90
17571;DHT22;8903;52.220;20.978;2023-08-06T10:16:31;29.00;99.90
17571;DHT22;8903;52.220;20.978;2023-08-06T10:18:59;29.10;99.90
17571;DHT22;8903;52.220;20.978;2023-08-06T10:21:26;29.10;99.90
17571;DHT22;8903;52.220;20.978;2023-08-06T10:23:57;29.20;99.90
17571;DHT22;8903;52.220;20.978;2023-08-06T10:26:25;29.10;99.90
17571;DHT22;8903;52.220;20.978;2023-08-06T10:28:53;29.20;99.90
17571;DHT22;8903;52.220;20.978;2023-08-06T10:31:24;29.30;99.90
17571;DHT22;8903;52.220;20.978;2023-08-06T10:34:11;29.30;99.90
17571;DHT22;8903;52.220;20.978;2023-08-06T10:36:38;29.30;99.90
17571;DHT22;8903;52.220;20.978;2023-08-06T10:39:13;29.30;99.90
17571;DHT22;8903;52.220;20.978;2023-08-06T10:41:44;29.20;99.90
17571;DHT22;8903;52.220;20.978;2023-08-06T10:44:11;29.20;99.90
17571;DHT22;8903;52.220;20.978;2023-08-06T10:46:38;29.30;99.90
17571;DHT22;8903;52.220;20.978;2023-08-06T10:49:06;29.40;99.90
17571;DHT22;8903;52.220;20.978;2023-08-06T10:51:34;29.40;99.90
17571;DHT22;8903;52.220;20.978;2023-08-06T10:54:02;29.50;99.90
17571;DHT22;8903;52.220;20.978;2023-08-06T10:56:31;29.60;99.90
17571;DHT22;8903;52.220;20.978;2023-08-06T10:58:57;29.60;99.90
17571;DHT22;8903;52.220;20.978;2023-08-06T11:01:28;29.60;99.50
17571;DHT22;8903;52.220;20.978;2023-08-06T11:03:55;29.60;99.80
17571;DHT22;8903;52.220;20.978;2023-08-06T11:06:23;29.60;99.90
17571;DHT22;8903;52.220;20.978;2023-08-06T11:08:53;29.70;99.90
17571;DHT22;8903;52.220;20.978;2023-08-06T11:11:22;29.70;99.80
17571;DHT22;8903;52.220;20.978;2023-08-06T11:13:51;29.70;99.90
17571;DHT22;8903;52.220;20.978;2023-08-06T11:16:20;29.60;99.60
17571;DHT22;8903;52.220;20.978;2023-08-06T11:18:48;29.50;99.40
17571;DHT22;8903;52.220;20.978;2023-08-06T11:21:19;29.60;99.70
17571;DHT22;8903;52.220;20.978;2023-08-06T11:23:46;29.70;99.60
17571;DHT22;8903;52.220;20.978;2023-08-06T11:26:18;29.80;99.50
17571;DHT22;8903;52.220;20.978;2023-08-06T11:28:45;29.90;99.20
17571;DHT22;8903;52.220;20.978;2023-08-06T11:31:20;29.80;98.90
17571;DHT22;8903;52.220;20.978;2023-08-06T11:33:47;29.80;99.10
17571;DHT22;8903;52.220;20.978;2023-08-06T11:36:13;29.70;99.30
17571;DHT22;8903;52.220;20.978;2023-08-06T11:38:41;29.70;99.30
17571;DHT22;8903;52.220;20.978;2023-08-06T11:41:08;30.10;98.80
17571;DHT22;8903;52.220;20.978;2023-08-06T11:43:35;30.40;98.90
17571;DHT22;8903;52.220;20.978;2023-08-06T11:46:02;31.00;98.40
17571;DHT22;8903;52.220;20.978;2023-08-06T11:48:30;31.50;97.50
17571;DHT22;8903;52.220;20.978;2023-08-06T11:50:57;31.90;97.40
17571;DHT22;8903;52.220;20.978;2023-08-06T11:53:27;32.10;96.20
17571;DHT22;8903;52.220;20.978;2023-08-06T11:55:55;32.20;95.70
17571;DHT22;8903;52.220;20.978;2023-08-06T11:58:22;32.30;95.60
17571;DHT22;8903;52.220;20.978;2023-08-06T12:00:49;32.40;95.60
17571;DHT22;8903;52.220;20.978;2023-08-06T12:03:19;32.60;95.30
17571;DHT22;8903;52.220;20.978;2023-08-06T12:05:47;32.60;95.00
17571;DHT22;8903;52.220;20.978;2023-08-06T12:08:14;32.70;95.10
17571;DHT22;8903;52.220;20.978;2023-08-06T12:10:41;32.60;94.20
17571;DHT22;8903;52.220;20.978;2023-08-06T12:13:10;32.40;94.50
17571;DHT22;8903;52.220;20.978;2023-08-06T12:15:38;32.10;94.20
17571;DHT22;8903;52.220;20.978;2023-08-06T12:18:05;31.80;94.70
17571;DHT22;8903;52.220;20.978;2023-08-06T12:20:33;31.30;95.00
17571;DHT22;8903;52.220;20.978;2023-08-06T12:23:02;30.90;95.50
17571;DHT22;8903;52.220;20.978;2023-08-06T12:25:28;30.70;95.70
17571;DHT22;8903;52.220;20.978;2023-08-06T12:27:55;30.60;96.10
17571;DHT22;8903;52.220;20.978;2023-08-06T12:30:22;30.50;96.30
17571;DHT22;8903;52.220;20.978;2023-08-06T12:32:51;30.30;96.60
17571;DHT22;8903;52.220;20.978;2023-08-06T12:35:19;30.30;96.70
17571;DHT22;8903;52.220;20.978;2023-08-06T12:37:46;30.10;96.70
17571;DHT22;8903;52.220;20.978;2023-08-06T12:40:14;30.00;97.00
17571;DHT22;8903;52.220;20.978;2023-08-06T12:42:41;29.80;97.20
17571;DHT22;8903;52.220;20.978;2023-08-06T12:45:09;29.70;97.50
17571;DHT22;8903;52.220;20.978;2023-08-06T12:47:36;29.60;97.50
17571;DHT22;8903;52.220;20.978;2023-08-06T12:50:04;29.40;97.70
17571;DHT22;8903;52.220;20.978;2023-08-06T12:52:31;29.30;98.00
17571;DHT22;8903;52.220;20.978;2023-08-06T12:55:01;29.20;98.20
17571;DHT22;8903;52.220;20.978;2023-08-06T12:57:32;29.10;98.50
17571;DHT22;8903;52.220;20.978;2023-08-06T13:00:00;29.00;98.60
17571;DHT22;8903;52.220;20.978;2023-08-06T13:02:30;29.00;98.80
17571;DHT22;8903;52.220;20.978;2023-08-06T13:04:57;29.00;98.70
17571;DHT22;8903;52.220;20.978;2023-08-06T13:07:24;28.90;98.50
17571;DHT22;8903;52.220;20.978;2023-08-06T13:09:51;28.90;98.50
17571;DHT22;8903;52.220;20.978;2023-08-06T13:12:18;28.90;98.90
17571;DHT22;8903;52.220;20.978;2023-08-06T13:14:49;28.90;99.80
17571;DHT22;8903;52.220;20.978;2023-08-06T13:17:18;28.80;99.20
17571;DHT22;8903;52.220;20.978;2023-08-06T13:19:45;28.80;99.30
17571;DHT22;8903;52.220;20.978;2023-08-06T13:22:12;29.00;99.00
17571;DHT22;8903;52.220;20.978;2023-08-06T13:24:39;29.40;98.50
17571;DHT22;8903;52.220;20.978;2023-08-06T13:27:06;29.90;97.80
17571;DHT22;8903;52.220;20.978;2023-08-06T13:29:35;30.20;97.70
17571;DHT22;8903;52.220;20.978;2023-08-06T13:32:04;30.50;97.60
17571;DHT22;8903;52.220;20.978;2023-08-06T13:34:31;30.60;97.30
17571;DHT22;8903;52.220;20.978;2023-08-06T13:36:58;30.80;97.10
17571;DHT22;8903;52.220;20.978;2023-08-06T13:39:25;31.20;97.10
17571;DHT22;8903;52.220;20.978;2023-08-06T13:41:52;31.40;96.40
17571;DHT22;8903;52.220;20.978;2023-08-06T13:44:18;31.40;96.90
17571;DHT22;8903;52.220;20.978;2023-08-06T13:46:45;31.30;97.20
17571;DHT22;8903;52.220;20.978;2023-08-06T13:49:14;31.10;97.40
17571;DHT22;8903;52.220;20.978;2023-08-06T13:51:41;31.10;97.70
17571;DHT22;8903;52.220;20.978;2023-08-06T13:54:08;30.80;97.60
17571;DHT22;8903;52.220;20.978;2023-08-06T13:56:35;30.60;97.60
17571;DHT22;8903;52.220;20.978;2023-08-06T13:59:03;30.10;98.30
17571;DHT22;8903;52.220;20.978;2023-08-06T14:01:30;29.70;98.50
17571;DHT22;8903;52.220;20.978;2023-08-06T14:03:57;29.60;99.00
17571;DHT22;8903;52.220;20.978;2023-08-06T14:06:26;29.60;98.50
17571;DHT22;8903;52.220;20.978;2023-08-06T14:08:53;29.60;98.80
17571;DHT22;8903;52.220;20.978;2023-08-06T14:11:20;29.50;98.80
17571;DHT22;8903;52.220;20.978;2023-08-06T14:13:46;29.60;98.50
17571;DHT22;8903;52.220;20.978;2023-08-06T14:16:14;29.80;98.60
17571;DHT22;8903;52.220;20.978;2023-08-06T14:18:41;30.10;98.30
17571;DHT22;8903;52.220;20.978;2023-08-06T14:21:08;30.30;97.80
17571;DHT22;8903;52.220;20.978;2023-08-06T14:23:36;30.30;97.60
17571;DHT22;8903;52.220;20.978;2023-08-06T14:26:03;30.10;97.90
17571;DHT22;8903;52.220;20.978;2023-08-06T14:28:30;30.00;97.50
17571;DHT22;8903;52.220;20.978;2023-08-06T14:30:57;29.80;97.40
17571;DHT22;8903;52.220;20.978;2023-08-06T14:33:24;29.50;97.70
17571;DHT22;8903;52.220;20.978;2023-08-06T14:35:51;29.40;97.90
17571;DHT22;8903;52.220;20.978;2023-08-06T14:38:18;29.60;98.00
17571;DHT22;8903;52.220;20.978;2023-08-06T14:40:46;29.70;97.40
17571;DHT22;8903;52.220;20.978;2023-08-06T14:43:13;29.70;97.50
17571;DHT22;8903;52.220;20.978;2023-08-06T14:45:40;29.70;97.60
17571;DHT22;8903;52.220;20.978;2023-08-06T14:48:07;29.80;97.30
17571;DHT22;8903;52.220;20.978;2023-08-06T14:50:34;29.70;97.00
17571;DHT22;8903;52.220;20.978;2023-08-06T14:53:02;29.70;97.00
17571;DHT22;8903;52.220;20.978;2023-08-06T14:55:30;29.70;96.80
17571;DHT22;8903;52.220;20.978;2023-08-06T14:57:58;29.70;97.00
17571;DHT22;8903;52.220;20.978;2023-08-06T15:00:25;29.70;98.70
17571;DHT22;8903;52.220;20.978;2023-08-06T15:02:52;29.20;99.90
17571;DHT22;8903;52.220;20.978;2023-08-06T15:05:19;28.80;99.90
17571;DHT22;8903;52.220;20.978;2023-08-06T15:07:46;28.20;99.90
17571;DHT22;8903;52.220;20.978;2023-08-06T15:10:14;27.90;99.90
17571;DHT22;8903;52.220;20.978;2023-08-06T15:12:41;27.70;99.90
17571;DHT22;8903;52.220;20.978;2023-08-06T15:15:10;27.90;99.90
17571;DHT22;8903;52.220;20.978;2023-08-06T15:17:37;28.10;99.90
17571;DHT22;8903;52.220;20.978;2023-08-06T15:20:05;28.30;99.90
17571;DHT22;8903;52.220;20.978;2023-08-06T15:22:32;28.50;99.90
17571;DHT22;8903;52.220;20.978;2023-08-06T15:25:00;28.80;99.90
17571;DHT22;8903;52.220;20.978;2023-08-06T15:27:27;28.90;99.90
17571;DHT22;8903;52.220;20.978;2023-08-06T15:29:54;28.90;99.90
17571;DHT22;8903;52.220;20.978;2023-08-06T15:32:22;28.70;99.90
17571;DHT22;8903;52.220;20.978;2023-08-06T15:34:50;28.60;99.90